Time;durP1;ratioP1;P1;durP2;ratioP2;P2;SDS_P1;SDS_P2;PMS_P1;PMS_P2;Temp;Humidity;BMP_temperature;BMP_pressure;BME280_temperature;BME280_humidity;BME280_pressure;Samples;Min_cycle;Max_cycle;Signal;HPM_P1;HPM_P2
2024/01/05 00:00:52;;;;;;;3.70;0.98;;;;;;;;;;5050829;28;20048;-84
2024/01/05 00:03:18;;;;;;;2.88;1.08;;;;;;;;;;5050456;28;20071;-84
2024/01/05 00:05:44;;;;;;;1.80;0.88;;;;;;;;;;5044953;28;20033;-84
2024/01/05 00:08:11;;;;;;;1.30;0.90;;;;;;;;;;5042838;28;20498;-84
2024/01/05 00:10:36;;;;;;;1.35;1.00;;;;;;;;;;5048536;28;20021;-82
2024/01/05 00:13:03;;;;;;;0.82;0.70;;;;;;;;;;5050287;28;20032;-83
2024/01/05 00:15:29;;;;;;;1.52;0.80;;;;;;;;;;5050095;28;20025;-84
2024/01/05 00:17:55;;;;;;;1.05;0.88;;;;;;;;;;5049554;28;20024;-83
2024/01/05 00:20:21;;;;;;;2.05;0.82;;;;;;;;;;5050179;28;20055;-84
2024/01/05 00:22:47;;;;;;;4.30;0.90;;;;;;;;;;5050407;28;20017;-84
2024/01/05 00:25:15;;;;;;;4.00;1.70;;;;;;;;;;5050262;28;20033;-83
2024/01/05 00:27:41;;;;;;;1.85;0.77;;;;;;;;;;5050076;28;20039;-84
2024/01/05 00:30:08;;;;;;;1.40;1.10;;;;;;;;;;5037492;28;20025;-84
2024/01/05 00:32:34;;;;;;;1.13;0.85;;;;;;;;;;5049736;28;20044;-84
2024/01/05 00:35:00;;;;;;;3.75;1.20;;;;;;;;;;5049906;28;20033;-84
2024/01/05 00:37:26;;;;;;;4.65;1.00;;;;;;;;;;5049310;28;20032;-84
2024/01/05 00:39:52;;;;;;;1.00;0.80;;;;;;;;;;5049687;28;20021;-84
2024/01/05 00:42:18;;;;;;;1.15;1.05;;;;;;;;;;5049583;28;20032;-85
2024/01/05 00:44:44;;;;;;;2.10;0.95;;;;;;;;;;5047982;28;20486;-84
2024/01/05 00:47:10;;;;;;;3.20;1.27;;;;;;;;;;5047524;28;20021;-83
2024/01/05 00:49:37;;;;;;;5.18;1.52;;;;;;;;;;5049278;28;20025;-84
2024/01/05 00:52:03;;;;;;;3.00;0.90;;;;;;;;;;5037810;28;20026;-84
2024/01/05 00:54:29;;;;;;;1.83;0.60;;;;;;;;;;5035693;28;20121;-84
2024/01/05 00:56:55;;;;;;;1.65;0.85;;;;;;;;;;5049106;28;20053;-84
2024/01/05 00:59:21;;;;;;;0.77;0.60;;;;;;;;;;5034969;28;20383;-84
2024/01/05 01:01:47;;;;;;;2.83;1.00;;;;;;;;;;5049584;28;20386;-84
2024/01/05 01:04:14;;;;;;;2.35;1.05;;;9.20;69.50;;;;;;5049611;28;20079;-84
2024/01/05 01:06:40;;;;;;;1.90;1.33;;;;;;;;;;5048203;28;20036;-84
2024/01/05 01:09:07;;;;;;;8.00;0.80;;;;;;;;;;5049295;28;20025;-84
2024/01/05 01:11:33;;;;;;;2.80;1.15;;;;;;;;;;5048874;28;20078;-84
2024/01/05 01:13:59;;;;;;;2.55;1.35;;;;;;;;;;5048757;28;20088;-84
2024/01/05 01:16:25;;;;;;;1.52;1.10;;;;;;;;;;5049589;28;20041;-84
2024/01/05 01:18:51;;;;;;;8.25;1.27;;;;;;;;;;5051621;28;20079;-84
2024/01/05 01:21:17;;;;;;;1.20;0.73;;;;;;;;;;5039117;28;20022;-84
2024/01/05 01:23:43;;;;;;;1.20;0.98;;;;;;;;;;5051614;28;20100;-84
2024/01/05 01:26:09;;;;;;;2.35;1.00;;;;;;;;;;5054154;28;20136;-84
2024/01/05 01:28:35;;;;;;;1.30;0.88;;;;;;;;;;5052442;28;20056;-84
2024/01/05 01:31:01;;;;;;;2.45;1.20;;;;;;;;;;5052612;28;20033;-84
2024/01/05 01:33:27;;;;;;;7.68;1.20;;;;;;;;;;5053465;28;20399;-84
2024/01/05 01:35:53;;;;;;;1.52;0.90;;;;;;;;;;5053578;28;20033;-84
2024/01/05 01:38:19;;;;;;;2.90;1.23;;;;;;;;;;5053564;28;20071;-84
2024/01/05 01:40:48;;;;;;;4.05;1.15;;;;;;;;;;5053439;28;20117;-84
2024/01/05 01:43:19;;;;;;;2.92;0.90;;;8.60;92.80;;;;;;5050076;28;20066;-83
2024/01/05 01:45:45;;;;;;;3.53;1.00;;;;;;;;;;5053454;28;20025;-83
2024/01/05 01:48:11;;;;;;;2.20;1.17;;;;;;;;;;5054940;28;20009;-82
2024/01/05 01:50:37;;;;;;;0.98;0.88;;;;;;;;;;5056386;28;20696;-83
2024/01/05 01:53:03;;;;;;;0.70;0.70;;;;;;;;;;5054484;28;20193;-84
2024/01/05 01:55:29;;;;;;;1.25;1.15;;;;;;;;;;5043295;28;20053;-84
2024/01/05 01:57:56;;;;;;;0.90;0.75;;;8.70;70.80;;;;;;5051249;28;20024;-85
2024/01/05 02:00:22;;;;;;;1.23;0.75;;;;;;;;;;5051061;28;20076;-84
2024/01/05 02:02:48;;;;;;;6.68;1.08;;;;;;;;;;5042712;28;20025;-84
2024/01/05 02:05:14;;;;;;;0.57;0.57;;;9.10;92.90;;;;;;5049128;28;20037;-84
2024/01/05 02:07:40;;;;;;;1.95;0.50;;;;;;;;;;5052551;28;20079;-83
2024/01/05 02:10:06;;;;;;;0.95;0.63;;;9.10;92.60;;;;;;5048958;28;20057;-84
2024/01/05 02:12:32;;;;;;;3.90;0.80;;;;;;;;;;5043391;28;20447;-84
2024/01/05 02:14:58;;;;;;;5.10;1.90;;;;;;;;;;5052675;28;20490;-84
2024/01/05 02:17:31;;;;;;;1.17;1.08;;;8.80;93.00;;;;;;5051078;28;20029;-84
2024/01/05 02:19:57;;;;;;;10.77;2.90;;;8.90;81.10;;;;;;5052315;28;20048;-84
2024/01/05 02:22:27;;;;;;;8.70;3.08;;;8.60;71.80;;;;;;5052403;28;20494;-84
2024/01/05 02:24:53;;;;;;;7.38;2.13;;;;;;;;;;5052191;28;20469;-84
2024/01/05 02:27:19;;;;;;;14.55;3.10;;;;;;;;;;5052084;28;20079;-84
2024/01/05 02:29:45;;;;;;;3.75;1.60;;;;;;;;;;5063120;28;20478;-84
2024/01/05 02:32:11;;;;;;;2.90;1.10;;;;;;;;;;5051869;28;20033;-83
2024/01/05 02:34:37;;;;;;;5.63;1.55;;;;;;;;;;5051447;28;20396;-84
2024/01/05 02:37:03;;;;;;;5.30;1.70;;;;;;;;;;5051137;28;20520;-84
2024/01/05 02:39:29;;;;;;;1.83;1.17;;;;;;;;;;5052064;28;20057;-84
2024/01/05 02:41:55;;;;;;;2.78;1.60;;;;;;;;;;5040762;28;20556;-84
2024/01/05 02:44:21;;;;;;;2.15;1.20;;;;;;;;;;5049282;28;20044;-84
2024/01/05 02:46:47;;;;;;;2.90;1.70;;;;;;;;;;5050742;28;20483;-84
2024/01/05 02:49:13;;;;;;;1.60;0.90;;;;;;;;;;5051991;28;20036;-84
2024/01/05 02:51:39;;;;;;;2.70;1.23;;;;;;;;;;5052165;28;20028;-83
2024/01/05 02:54:06;;;;;;;5.50;1.42;;;;;;;;;;5051287;28;20104;-83
2024/01/05 02:56:33;;;;;;;2.92;1.50;;;;;;;;;;5052003;28;20444;-83
2024/01/05 02:59:00;;;;;;;2.20;1.60;;;;;;;;;;5050862;28;20390;-84
2024/01/05 03:01:26;;;;;;;3.47;1.33;;;;;;;;;;5051555;28;20441;-84
2024/01/05 03:03:52;;;;;;;1.95;1.15;;;;;;;;;;5051457;28;20131;-84
2024/01/05 03:06:19;;;;;;;4.88;1.70;;;8.60;79.60;;;;;;5051555;28;20387;-84
2024/01/05 03:08:45;;;;;;;4.65;1.30;;;;;;;;;;5050055;28;20108;-84
2024/01/05 03:11:11;;;;;;;0.70;0.70;;;;;;;;;;5051013;28;20379;-84
2024/01/05 03:13:37;;;;;;;5.85;1.25;;;;;;;;;;5049617;28;20432;-84
2024/01/05 03:16:04;;;;;;;8.10;1.00;;;8.90;74.80;;;;;;5051892;28;20037;-83
2024/01/05 03:18:30;;;;;;;1.35;1.25;;;;;;;;;;5050878;28;20083;-84
2024/01/05 03:20:56;;;;;;;1.17;0.90;;;;;;;;;;5051252;28;20060;-84
2024/01/05 03:23:22;;;;;;;2.28;1.30;;;;;;;;;;5050987;28;20017;-84
2024/01/05 03:25:50;;;;;;;2.83;1.92;;;;;;;;;;5051264;28;20052;-85
2024/01/05 03:28:16;;;;;;;2.80;1.13;;;;;;;;;;5050058;28;20021;-84
2024/01/05 03:30:42;;;;;;;2.47;1.02;;;;;;;;;;5050992;28;20033;-83
2024/01/05 03:33:09;;;;;;;1.10;1.00;;;;;;;;;;5049692;28;20021;-84
2024/01/05 03:35:35;;;;;;;2.95;1.58;;;;;;;;;;5045763;28;20492;-84
2024/01/05 03:38:01;;;;;;;2.58;1.45;;;;;;;;;;5050422;28;20025;-84
2024/01/05 03:40:27;;;;;;;0.68;0.65;;;;;;;;;;5051110;28;20052;-84
2024/01/05 03:42:53;;;;;;;1.42;1.00;;;;;;;;;;5050115;28;20028;-83
2024/01/05 03:45:19;;;;;;;3.00;1.15;;;;;;;;;;5050318;28;20032;-85
2024/01/05 03:47:45;;;;;;;1.25;0.98;;;;;;;;;;5052651;28;20028;-83
2024/01/05 03:50:11;;;;;;;1.70;1.05;;;;;;;;;;5051728;28;20028;-83
2024/01/05 03:52:37;;;;;;;5.38;1.25;;;;;;;;;;5036968;28;20170;-84
2024/01/05 03:55:04;;;;;;;4.70;1.30;;;;;;;;;;5050342;28;20583;-82
2024/01/05 03:57:30;;;;;;;0.98;0.90;;;;;;;;;;5050258;28;20474;-84
2024/01/05 03:59:56;;;;;;;3.83;0.82;;;;;;;;;;5050840;28;20406;-84
2024/01/05 04:02:22;;;;;;;0.70;0.70;;;;;;;;;;5050868;28;20021;-84
2024/01/05 04:04:48;;;;;;;1.38;1.00;;;;;;;;;;5050456;28;20493;-84
2024/01/05 04:07:14;;;;;;;1.15;1.02;;;;;;;;;;5050023;28;20033;-84
2024/01/05 04:09:40;;;;;;;1.80;1.17;;;;;;;;;;5050083;28;20021;-83
2024/01/05 04:12:07;;;;;;;1.58;0.90;;;9.10;82.80;;;;;;5049665;28;20489;-83
2024/01/05 04:14:35;;;;;;;1.40;0.95;;;8.50;79.30;;;;;;5049064;28;20505;-82
2024/01/05 04:17:01;;;;;;;2.70;1.58;;;;;;;;;;5050939;28;20040;-82
2024/01/05 04:19:29;;;;;;;5.80;1.17;;;;;;;;;;5052625;28;20105;-83
2024/01/05 04:21:55;;;;;;;2.25;1.40;;;;;;;;;;5040431;28;20029;-83
2024/01/05 04:24:21;;;;;;;1.35;1.10;;;;;;;;;;5050821;28;20059;-83
2024/01/05 04:26:48;;;;;;;3.85;1.15;;;;;;;;;;5050170;28;20064;-83
2024/01/05 04:29:14;;;;;;;1.67;0.77;;;;;;;;;;5049130;28;20024;-83
2024/01/05 04:31:40;;;;;;;2.13;1.40;;;;;;;;;;5037542;28;20048;-83
2024/01/05 04:34:06;;;;;;;1.20;1.10;;;;;;;;;;5049960;28;20021;-83
2024/01/05 04:36:32;;;;;;;1.05;0.88;;;;;;;;;;5050637;28;20079;-83
2024/01/05 04:38:58;;;;;;;1.67;1.05;;;;;;;;;;5049849;28;20029;-84
2024/01/05 04:41:25;;;;;;;4.85;1.48;;;8.00;87.50;;;;;;5037167;28;20704;-84
2024/01/05 04:43:51;;;;;;;5.15;1.02;;;;;;;;;;5050055;28;20071;-83
2024/01/05 04:46:18;;;;;;;2.63;1.08;;;;;;;;;;5049723;28;20049;-84
2024/01/05 04:48:44;;;;;;;7.32;1.02;;;;;;;;;;5036519;28;20056;-84
2024/01/05 04:51:11;;;;;;;2.13;1.48;;;8.10;92.10;;;;;;5050146;28;20037;-84
2024/01/05 04:53:37;;;;;;;2.92;1.23;;;;;;;;;;5047806;28;20033;-83
2024/01/05 04:56:03;;;;;;;1.23;1.10;;;;;;;;;;5047792;28;20076;-84
2024/01/05 04:58:29;;;;;;;2.78;1.35;;;;;;;;;;5049178;28;20028;-83
2024/01/05 05:00:55;;;;;;;11.05;1.40;;;;;;;;;;5049636;28;20055;-83
2024/01/05 05:03:21;;;;;;;2.00;1.20;;;;;;;;;;5049336;28;20031;-84
2024/01/05 05:05:47;;;;;;;2.88;1.20;;;8.10;99.90;;;;;;5042734;28;20108;-83
2024/01/05 05:08:15;;;;;;;3.60;1.75;;;;;;;;;;5043396;28;20040;-84
2024/01/05 05:10:41;;;;;;;3.38;1.27;;;;;;;;;;5049742;28;20473;-83
2024/01/05 05:13:08;;;;;;;2.55;1.60;;;;;;;;;;5049137;28;20025;-84
2024/01/05 05:15:34;;;;;;;6.07;1.57;;;;;;;;;;5049424;28;20184;-84
2024/01/05 05:18:00;;;;;;;2.17;1.02;;;;;;;;;;5049689;28;20108;-84
2024/01/05 05:20:26;;;;;;;2.63;1.10;;;;;;;;;;5046559;28;20038;-85
2024/01/05 05:22:52;;;;;;;3.70;1.48;;;;;;;;;;5043721;28;20017;-85
2024/01/05 05:25:18;;;;;;;1.40;0.90;;;;;;;;;;5048894;28;20037;-85
2024/01/05 05:27:44;;;;;;;0.90;0.70;;;;;;;;;;5048740;28;20445;-85
2024/01/05 05:30:10;;;;;;;0.82;0.82;;;7.80;99.90;;;;;;5044651;28;20033;-85
2024/01/05 05:32:36;;;;;;;3.53;1.63;;;;;;;;;;5044370;28;20029;-85
2024/01/05 05:35:02;;;;;;;6.75;1.33;;;;;;;;;;5049922;28;20481;-84
2024/01/05 05:37:28;;;;;;;0.90;0.80;;;;;;;;;;5049217;28;20032;-85
2024/01/05 05:39:54;;;;;;;4.88;0.80;;;;;;;;;;5048613;28;20144;-85
2024/01/05 05:42:20;;;;;;;2.00;0.98;;;;;;;;;;5048672;28;20041;-84
2024/01/05 05:44:46;;;;;;;1.20;1.10;;;;;;;;;;5049461;28;20490;-84
2024/01/05 05:47:11;;;;;;;3.28;0.95;;;7.60;99.90;;;;;;5049043;28;20024;-84
2024/01/05 05:49:37;;;;;;;2.42;1.17;;;;;;;;;;5049224;28;20081;-84
2024/01/05 05:52:07;;;;;;;1.38;1.27;;;;;;;;;;5047308;28;20490;-85
2024/01/05 05:54:33;;;;;;;2.50;1.60;;;;;;;;;;5049511;28;20017;-85
2024/01/05 05:56:59;;;;;;;8.05;2.00;;;;;;;;;;5048834;28;20057;-85
2024/01/05 05:59:25;;;;;;;8.68;1.42;;;;;;;;;;5047463;28;20029;-85
2024/01/05 06:01:51;;;;;;;8.48;1.40;;;;;;;;;;5049105;28;20025;-84
2024/01/05 06:04:17;;;;;;;1.10;0.98;;;;;;;;;;5047579;28;20029;-84
2024/01/05 06:06:43;;;;;;;7.82;1.15;;;;;;;;;;5048829;28;20473;-85
2024/01/05 06:09:11;;;;;;;1.15;0.75;;;;;;;;;;5052754;28;20025;-85
2024/01/05 06:11:37;;;;;;;1.33;1.10;;;;;;;;;;5052820;28;20025;-84
2024/01/05 06:14:04;;;;;;;8.43;1.08;;;;;;;;;;5052509;28;20499;-84
2024/01/05 06:16:30;;;;;;;4.07;1.35;;;;;;;;;;5053910;28;20021;-84
2024/01/05 06:18:56;;;;;;;2.15;1.45;;;7.50;99.90;;;;;;5054844;28;20078;-84
2024/01/05 06:21:22;;;;;;;3.15;1.58;;;;;;;;;;5046967;28;20017;-84
2024/01/05 06:23:48;;;;;;;2.85;1.52;;;;;;;;;;5049384;28;20506;-83
2024/01/05 06:26:14;;;;;;;1.10;1.00;;;;;;;;;;5049689;28;20041;-83
2024/01/05 06:28:40;;;;;;;6.72;0.90;;;;;;;;;;5046318;28;20535;-84
2024/01/05 06:31:06;;;;;;;1.02;1.02;;;;;;;;;;5047642;28;20075;-85
2024/01/05 06:33:32;;;;;;;6.33;1.80;;;;;;;;;;5048577;28;20690;-84
2024/01/05 06:35:58;;;;;;;1.73;1.20;;;;;;;;;;5044750;28;20282;-82
2024/01/05 06:38:24;;;;;;;4.85;3.00;;;;;;;;;;5046226;28;20401;-76
2024/01/05 06:40:50;;;;;;;9.95;2.67;;;;;;;;;;5040844;28;20034;-82
2024/01/05 06:43:16;;;;;;;3.50;2.15;;;;;;;;;;5050047;28;20079;-83
2024/01/05 06:45:42;;;;;;;3.65;3.40;;;;;;;;;;5050216;28;20433;-82
2024/01/05 06:48:08;;;;;;;5.25;2.17;;;;;;;;;;5051478;28;20055;-82
2024/01/05 06:50:34;;;;;;;9.23;1.83;;;;;;;;;;5052044;28;20021;-82
2024/01/05 06:53:00;;;;;;;4.10;1.67;;;;;;;;;;5051740;28;20029;-82
2024/01/05 06:55:27;;;;;;;3.13;1.42;;;;;;;;;;5050036;28;20567;-82
2024/01/05 06:57:53;;;;;;;5.65;1.55;;;;;;;;;;5050462;28;20017;-87
2024/01/05 07:00:19;;;;;;;3.17;1.40;;;;;;;;;;5037551;28;20029;-83
2024/01/05 07:02:45;;;;;;;6.45;2.40;;;;;;;;;;5036152;28;20605;-82
2024/01/05 07:05:11;;;;;;;3.03;1.95;;;;;;;;;;5038934;28;20045;-83
2024/01/05 07:07:39;;;;;;;5.03;1.73;;;;;;;;;;5050692;28;20024;-82
2024/01/05 07:10:06;;;;;;;2.47;1.27;;;7.50;94.20;;;;;;5046339;28;20036;-82
2024/01/05 07:12:32;;;;;;;2.83;1.50;;;;;;;;;;5049941;28;20517;-83
2024/01/05 07:14:57;;;;;;;4.55;1.60;;;7.80;99.90;;;;;;5049309;28;20033;-82
2024/01/05 07:17:23;;;;;;;2.40;1.60;;;;;;;;;;5050772;28;20028;-81
2024/01/05 07:19:49;;;;;;;3.75;1.40;;;;;;;;;;5048068;28;20036;-82
2024/01/05 07:22:15;;;;;;;2.55;2.28;;;;;;;;;;5051141;28;20017;-83
2024/01/05 07:24:41;;;;;;;2.83;2.05;;;;;;;;;;5050211;28;20102;-83
2024/01/05 07:27:09;;;;;;;2.97;1.70;;;;;;;;;;5041646;28;20075;-82
2024/01/05 07:29:36;;;;;;;7.32;2.20;;;;;;;;;;5045627;28;20056;-82
2024/01/05 07:32:04;;;;;;;5.70;3.08;;;;;;;;;;5044671;28;20509;-82
2024/01/05 07:34:30;;;;;;;9.35;3.50;;;;;;;;;;5039507;28;20025;-83
2024/01/05 07:36:56;;;;;;;8.52;3.42;;;;;;;;;;5041328;28;20033;-78
2024/01/05 07:39:22;;;;;;;4.43;3.50;;;;;;;;;;5046184;28;20028;-82
2024/01/05 07:41:49;;;;;;;6.40;3.47;;;7.90;95.20;;;;;;5048889;28;20486;-82
2024/01/05 07:44:15;;;;;;;8.25;4.25;;;;;;;;;;5049734;28;20013;-81
2024/01/05 07:46:42;;;;;;;14.93;4.30;;;7.70;95.80;;;;;;5049226;28;20035;-81
2024/01/05 07:49:08;;;;;;;26.45;4.72;;;7.60;99.20;;;;;;5047725;28;20024;-82
2024/01/05 07:51:34;;;;;;;9.30;5.50;;;;;;;;;;5050159;28;20468;-82
2024/01/05 07:54:00;;;;;;;9.68;5.25;;;;;;;;;;5049216;28;20486;-81
2024/01/05 07:56:26;;;;;;;7.90;3.97;;;;;;;;;;5049038;28;20045;-81
2024/01/05 07:58:52;;;;;;;16.40;5.78;;;;;;;;;;5048748;28;20021;-82
2024/01/05 08:01:19;;;;;;;15.55;6.05;;;7.90;95.70;;;;;;5048588;28;20090;-82
2024/01/05 08:03:45;;;;;;;11.18;3.95;;;;;;;;;;5048347;28;20476;-83
2024/01/05 08:06:18;;;;;;;10.25;3.95;;;7.90;99.90;;;;;;5048816;28;20048;-80
2024/01/05 08:08:45;;;;;;;12.23;4.57;;;7.60;98.90;;;;;;5048394;28;20029;-79
2024/01/05 08:11:11;;;;;;;13.75;4.10;;;;;;;;;;5048391;28;20056;-77
2024/01/05 08:13:37;;;;;;;5.50;3.63;;;;;;;;;;5048474;28;20021;-79
2024/01/05 08:16:03;;;;;;;7.88;4.07;;;;;;;;;;5048887;28;20029;-81
2024/01/05 08:18:29;;;;;;;17.10;4.72;;;;;;;;;;5047843;28;20025;-74
2024/01/05 08:20:55;;;;;;;9.13;3.80;;;;;;;;;;5047284;28;20104;-73
2024/01/05 08:23:21;;;;;;;12.25;5.20;;;;;;;;;;5047222;28;20013;-73
2024/01/05 08:25:47;;;;;;;19.20;4.93;;;7.70;99.90;;;;;;5046890;28;20052;-74
2024/01/05 08:28:13;;;;;;;9.40;4.82;;;;;;;;;;5047186;28;20541;-74
2024/01/05 08:30:39;;;;;;;22.08;7.80;;;;;;;;;;5049534;28;20035;-80
2024/01/05 08:33:06;;;;;;;16.60;6.88;;;7.90;97.20;;;;;;5048058;28;20450;-79
2024/01/05 08:35:32;;;;;;;15.82;5.10;;;7.90;99.90;;;;;;5048063;28;20400;-74
2024/01/05 08:37:58;;;;;;;7.78;4.22;;;;;;;;;;5046914;28;20494;-74
2024/01/05 08:40:26;;;;;;;7.57;4.00;;;;;;;;;;5047401;28;20036;-74
2024/01/05 08:42:53;;;;;;;6.32;3.95;;;8.20;99.90;;;;;;5047235;28;20024;-74
2024/01/05 08:45:19;;;;;;;15.85;5.88;;;;;;;;;;5046744;28;20114;-74
2024/01/05 08:47:45;;;;;;;24.67;7.90;;;;;;;;;;5046534;28;20515;-74
2024/01/05 08:50:11;;;;;;;18.75;10.70;;;8.10;99.00;;;;;;5042906;28;20037;-75
2024/01/05 08:52:38;;;;;;;8.45;4.72;;;8.10;98.00;;;;;;5046883;28;20028;-74
2024/01/05 08:55:04;;;;;;;11.82;5.90;;;;;;;;;;5046763;28;20036;-74
2024/01/05 08:57:30;;;;;;;10.27;4.45;;;8.20;99.90;;;;;;5047308;28;20123;-74
2024/01/05 08:59:55;;;;;;;15.32;6.18;;;8.30;99.90;;;;;;5046491;28;20029;-74
2024/01/05 09:02:22;;;;;;;23.15;7.80;;;8.30;99.90;;;;;;5047167;28;20052;-74
2024/01/05 09:04:48;;;;;;;14.93;7.80;;;;;;;;;;5047117;28;20094;-74
2024/01/05 09:07:14;;;;;;;9.48;3.63;;;8.30;99.90;;;;;;5046989;28;20120;-74
2024/01/05 09:09:40;;;;;;;6.65;4.03;;;;;;;;;;5047226;28;20148;-81
2024/01/05 09:12:07;;;;;;;5.78;3.45;;;8.30;97.30;;;;;;5046211;28;20087;-74
2024/01/05 09:14:33;;;;;;;17.05;9.27;;;;;;;;;;5046706;28;20032;-74
2024/01/05 09:17:00;;;;;;;26.92;12.68;;;;;;;;;;5046359;28;20397;-76
2024/01/05 09:19:26;;;;;;;22.08;8.57;;;7.90;99.90;;;;;;5046980;28;20194;-79
2024/01/05 09:21:52;;;;;;;20.88;9.05;;;;;;;;;;5047299;28;20577;-78
2024/01/05 09:24:18;;;;;;;20.42;8.52;;;;;;;;;;5047518;28;20079;-76
2024/01/05 09:26:44;;;;;;;14.40;7.20;;;;;;;;;;5034940;28;20037;-81
2024/01/05 09:29:10;;;;;;;12.80;5.53;;;;;;;;;;5047076;28;20028;-79
2024/01/05 09:31:36;;;;;;;11.50;5.22;;;;;;;;;;5048203;28;20017;-80
2024/01/05 09:34:02;;;;;;;15.30;7.13;;;;;;;;;;5045007;28;20017;-81
2024/01/05 09:36:28;;;;;;;11.25;5.28;;;;;;;;;;5034008;28;20021;-80
2024/01/05 09:38:54;;;;;;;18.98;6.65;;;;;;;;;;5048494;28;20029;-79
2024/01/05 09:41:20;;;;;;;23.55;5.43;;;;;;;;;;5041076;28;20038;-80
2024/01/05 09:43:48;;;;;;;10.13;4.93;;;8.50;98.60;;;;;;5044396;28;20021;-81
2024/01/05 09:46:15;;;;;;;9.48;5.32;;;;;;;;;;5038209;28;20037;-80
2024/01/05 09:48:41;;;;;;;10.15;5.13;;;;;;;;;;5051800;28;20093;-78
2024/01/05 09:51:07;;;;;;;8.38;3.47;;;8.40;98.70;;;;;;5051398;28;20160;-77
2024/01/05 09:53:33;;;;;;;7.82;4.13;;;;;;;;;;5051101;28;20025;-77
2024/01/05 09:55:59;;;;;;;8.18;4.22;;;;;;;;;;5051135;28;20053;-78
2024/01/05 09:58:26;;;;;;;8.18;4.53;;;;;;;;;;5050552;28;20086;-78
2024/01/05 10:00:54;;;;;;;9.63;4.07;;;8.40;98.90;;;;;;5050883;28;20025;-77
2024/01/05 10:03:22;;;;;;;17.63;5.50;;;8.50;98.80;;;;;;5050971;28;20675;-77
2024/01/05 10:05:53;;;;;;;8.82;3.90;;;8.60;99.00;;;;;;5050778;28;20033;-77
2024/01/05 10:08:21;;;;;;;13.55;4.72;;;;;;;;;;5051089;28;20036;-75
2024/01/05 10:10:49;;;;;;;6.57;4.07;;;8.70;99.20;;;;;;5049247;28;20037;-76
2024/01/05 10:13:15;;;;;;;6.90;4.18;;;;;;;;;;5041816;28;20028;-76
2024/01/05 10:15:59;;;;;;;7.03;3.85;;;8.90;99.00;;;;;;5040002;28;20029;-77
2024/01/05 10:18:25;;;;;;;8.95;3.88;;;9.20;99.90;;;;;;5042715;28;20021;-77
2024/01/05 10:20:51;;;;;;;7.00;3.53;;;;;;;;;;5050062;28;20032;-76
2024/01/05 10:23:17;;;;;;;9.45;2.80;;;;;;;;;;5048891;28;20021;-76
2024/01/05 10:25:46;;;;;;;9.52;3.65;;;;;;;;;;5041691;28;20033;-80
2024/01/05 10:28:37;;;;;;;7.95;3.50;;;9.10;99.90;;;;;;5047926;28;20044;-75
2024/01/05 10:31:29;;;;;;;10.52;4.72;;;9.20;98.20;;;;;;5049230;28;20041;-75
2024/01/05 10:33:56;;;;;;;5.40;3.13;;;;;;;;;;5040380;28;20029;-75
2024/01/05 10:36:23;;;;;;;9.88;4.40;;;9.20;98.00;;;;;;5050157;28;20028;-74
2024/01/05 10:38:50;;;;;;;7.93;3.65;;;9.20;98.00;;;;;;5049537;28;20030;-76
2024/01/05 10:41:17;;;;;;;10.77;6.00;;;9.30;99.90;;;;;;5049870;28;20036;-75
2024/01/05 10:43:43;;;;;;;9.10;4.78;;;;;;;;;;5049251;28;20390;-75
2024/01/05 10:46:11;;;;;;;10.88;5.03;;;9.50;98.00;;;;;;5047522;28;20044;-74
2024/01/05 10:48:39;;;;;;;15.25;6.32;;;9.60;97.60;;;;;;5050162;28;20016;-80
2024/01/05 10:51:07;;;;;;;12.70;5.00;;;9.70;97.30;;;;;;5047265;28;20398;-81
2024/01/05 10:53:32;;;;;;;;;;;9.70;97.50;;;;;;5049307;28;20517;-78
2024/01/05 10:56:01;;;;;;;12.65;6.45;;;10.10;97.00;;;;;;5049890;28;20007;-79
2024/01/05 10:58:27;;;;;;;13.02;7.15;;;;;;;;;;5044708;28;21492;-78
2024/01/05 11:00:57;;;;;;;9.85;4.72;;;10.20;96.70;;;;;;5047890;28;20296;-76
2024/01/05 11:03:25;;;;;;;11.68;3.92;;;10.30;96.50;;;;;;5041099;28;20139;-77
2024/01/05 11:05:51;;;;;;;17.58;5.20;;;;;;;;;;5047164;28;20556;-77
2024/01/05 11:08:52;;;;;;;12.23;6.05;;;10.40;99.60;;;;;;5048504;28;20513;-77
2024/01/05 11:11:18;;;;;;;8.68;4.18;;;;;;;;;;5035921;28;20036;-78
2024/01/05 11:13:50;;;;;;;5.13;3.85;;;10.60;95.50;;;;;;5049486;28;20029;-78
2024/01/05 11:16:52;;;;;;;5.57;3.60;;;10.70;95.60;;;;;;5049610;28;20413;-78
2024/01/05 11:19:45;;;;;;;4.22;2.45;;;10.80;94.80;;;;;;5049270;28;20029;-78
2024/01/05 11:22:14;;;;;;;9.30;3.55;;;11.10;94.60;;;;;;5049851;28;20029;-78
2024/01/05 11:24:41;;;;;;;7.20;3.13;;;11.50;93.60;;;;;;5048841;28;20037;-78
2024/01/05 11:27:29;;;;;;;4.95;2.60;;;11.90;92.90;;;;;;5042789;28;20031;-78
2024/01/05 11:29:56;;;;;;;5.05;2.78;;;;;;;;;;5052113;28;20020;-76
2024/01/05 11:32:47;;;;;;;2.53;2.33;;;12.40;90.50;;;;;;5048657;28;20036;-75
2024/01/05 11:35:16;;;;;;;5.22;2.28;;;12.30;94.50;;;;;;5038225;28;20494;-75
2024/01/05 11:37:42;;;;;;;4.07;3.00;;;;;;;;;;5048747;28;20412;-75
2024/01/05 11:40:25;;;;;;;6.75;2.13;;;12.10;90.40;;;;;;5048134;28;20104;-75
2024/01/05 11:42:51;;;;;;;4.20;2.47;;;;;;;;;;5048276;28;20024;-76
2024/01/05 11:45:46;;;;;;;3.17;2.35;;;11.50;92.20;;;;;;5047490;28;20040;-76
2024/01/05 11:48:34;;;;;;;5.00;2.30;;;11.50;99.90;;;;;;5048491;28;20029;-75
2024/01/05 11:51:02;;;;;;;;;;;11.60;92.30;;;;;;5048547;28;20434;-75
2024/01/05 11:53:28;;;;;;;2.00;1.52;;;;;;;;;;5048056;28;19909;-75
2024/01/05 11:56:07;;;;;;;3.10;1.88;;;11.40;96.20;;;;;;5046795;28;20144;-75
2024/01/05 11:58:38;;;;;;;1.92;1.55;;;;;;;;;;5048066;28;20041;-75
2024/01/05 12:01:12;;;;;;;7.47;1.77;;;11.50;93.00;;;;;;5046252;28;20482;-76
2024/01/05 12:03:38;;;;;;;2.95;1.67;;;11.50;93.00;;;;;;5047949;28;20032;-76
2024/01/05 12:06:05;;;;;;;1.83;1.43;;;11.40;93.10;;;;;;5046446;28;20072;-75
2024/01/05 12:08:31;;;;;;;4.10;2.17;;;;;;;;;;5047908;28;20027;-78
2024/01/05 12:11:03;;;;;;;1.73;1.52;;;12.00;92.80;;;;;;5048597;28;20028;-78
2024/01/05 12:13:32;;;;;;;0.80;0.57;;;12.20;91.50;;;;;;5048434;28;20024;-78
2024/01/05 12:15:59;;;;;;;1.00;0.90;;;;;;;;;;5046434;28;20032;-78
2024/01/05 12:18:30;;;;;;;0.88;0.88;;;;;;;;;;5048682;28;20478;-77
2024/01/05 12:21:00;;;;;;;1.73;1.20;;;12.80;99.70;;;;;;5048224;28;20117;-77
2024/01/05 12:23:28;;;;;;;5.55;1.00;;;12.80;87.20;;;;;;5047364;28;20031;-78
2024/01/05 12:26:04;;;;;;;;;;;12.80;87.60;;;;;;5048162;28;20039;-79
2024/01/05 12:28:33;;;;;;;5.13;1.08;;;12.10;86.20;;;;;;5036874;28;20325;-79
2024/01/05 12:30:59;;;;;;;0.85;0.85;;;;;;;;;;5049107;28;20573;-80
2024/01/05 12:33:26;;;;;;;1.50;1.08;;;11.70;90.20;;;;;;5048512;28;20052;-80
2024/01/05 12:35:52;;;;;;;4.40;1.25;;;11.50;99.90;;;;;;5047829;28;20032;-79
2024/01/05 12:38:23;;;;;;;1.27;0.95;;;11.20;90.90;;;;;;5047812;28;20527;-79
2024/01/05 12:40:49;;;;;;;1.30;1.05;;;;;;;;;;5048204;28;20524;-79
2024/01/05 12:43:16;;;;;;;1.25;0.82;;;;;;;;;;5047711;28;20013;-79
2024/01/05 12:45:42;;;;;;;6.85;1.65;;;;;;;;;;5047494;28;20049;-74
2024/01/05 12:48:11;;;;;;;1.88;0.70;;;10.90;99.90;;;;;;5047319;28;20021;-75
2024/01/05 12:50:37;;;;;;;3.22;1.10;;;10.50;97.50;;;;;;5046571;28;20086;-73
2024/01/05 12:53:19;;;;;;;1.73;1.23;;;7.60;94.00;;;;;;5046487;28;20033;-73
2024/01/05 12:55:45;;;;;;;1.30;0.80;;;;;;;;;;5047161;28;20076;-73
2024/01/05 12:58:11;;;;;;;1.70;0.90;;;10.30;99.90;;;;;;5047588;28;20033;-73
2024/01/05 13:00:43;;;;;;;1.27;1.17;;;10.10;95.50;;;;;;5046006;28;20452;-73
2024/01/05 13:03:18;;;;;;;0.93;0.90;;;9.90;95.80;;;;;;5046606;28;20490;-73
2024/01/05 13:05:44;;;;;;;1.52;1.13;;;;;;;;;;5038626;28;20460;-73
2024/01/05 13:08:11;;;;;;;1.00;0.85;;;10.60;99.90;;;;;;5046802;28;20421;-73
2024/01/05 13:10:38;;;;;;;1.42;0.98;;;;;;;;;;5046935;28;20036;-73
2024/01/05 13:13:04;;;;;;;1.17;1.02;;;;;;;;;;5046864;28;20033;-73
2024/01/05 13:15:30;;;;;;;4.18;1.67;;;10.00;99.90;;;;;;5047573;28;20111;-73
2024/01/05 13:17:57;;;;;;;2.50;1.02;;;10.20;96.60;;;;;;5051255;28;20083;-74
2024/01/05 13:20:24;;;;;;;5.75;1.20;;;9.80;99.20;;;;;;5049967;28;20035;-73
2024/01/05 13:23:00;;;;;;;2.25;1.00;;;9.70;96.00;;;;;;5048682;28;20554;-73
2024/01/05 13:25:25;;;;;;;2.15;1.15;;;9.60;99.90;;;;;;5051390;28;20631;-73
2024/01/05 13:27:52;;;;;;;1.65;1.20;;;;;;;;;;5050143;28;20021;-77
2024/01/05 13:30:18;;;;;;;1.27;1.10;;;;;;;;;;5053373;28;20037;-76
2024/01/05 13:32:46;;;;;;;1.45;1.15;;;9.50;97.50;;;;;;5050257;28;20025;-76
2024/01/05 13:35:12;;;;;;;1.77;1.40;;;;;;;;;;5051271;28;20021;-72
2024/01/05 13:37:38;;;;;;;5.05;1.95;;;9.30;99.90;;;;;;5050169;28;20025;-72
2024/01/05 13:40:05;;;;;;;5.50;1.90;;;9.40;98.10;;;;;;5050213;28;20090;-74
2024/01/05 13:42:32;;;;;;;6.90;2.63;;;9.20;99.90;;;;;;5051339;28;20091;-73
2024/01/05 13:44:58;;;;;;;7.17;2.93;;;;;;;;;;5050151;28;20119;-73
2024/01/05 13:47:26;;;;;;;3.05;1.77;;;9.30;98.30;;;;;;5050645;28;20059;-73
2024/01/05 13:49:53;;;;;;;1.85;1.33;;;9.30;98.50;;;;;;5049972;28;20021;-73
2024/01/05 13:52:19;;;;;;;4.07;2.33;;;;;;;;;;5050233;28;20029;-74
2024/01/05 13:54:45;;;;;;;7.25;3.00;;;9.20;98.70;;;;;;5050641;28;20501;-74
2024/01/05 13:57:11;;;;;;;5.22;2.38;;;;;;;;;;5049537;28;20091;-73
2024/01/05 13:59:37;;;;;;;3.35;2.75;;;;;;;;;;5049950;28;20053;-73
2024/01/05 14:02:03;;;;;;;3.40;1.90;;;9.20;99.90;;;;;;5049833;28;20025;-73
2024/01/05 14:04:30;;;;;;;3.45;1.60;;;;;;;;;;5050304;28;20025;-73
2024/01/05 14:06:56;;;;;;;3.47;1.88;;;9.20;99.00;;;;;;5049493;28;20037;-73